sensor_id;sensor_type;location;lat;lon;timestamp;pressure;altitude;pressure_sealevel;temperature;humidity
65376;BME280;51976;47.332;9.404;2023-04-03T00:01:15;92937.00;;;5.56;72.75
65376;BME280;51976;47.332;9.404;2023-04-03T00:03:41;92948.75;;;5.77;72.13
65376;BME280;51976;47.332;9.404;2023-04-03T00:06:07;92949.56;;;5.77;72.20
65376;BME280;51976;47.332;9.404;2023-04-03T00:08:34;92943.06;;;5.68;71.39
65376;BME280;51976;47.332;9.404;2023-04-03T00:10:59;92939.88;;;5.50;71.77
65376;BME280;51976;47.332;9.404;2023-04-03T00:13:25;92955.41;;;4.92;72.78
65376;BME280;51976;47.332;9.404;2023-04-03T00:15:51;92957.16;;;5.03;72.68
65376;BME280;51976;47.332;9.404;2023-04-03T00:18:16;92936.72;;;4.92;72.70
65376;BME280;51976;47.332;9.404;2023-04-03T00:20:42;92932.25;;;4.81;73.46
65376;BME280;51976;47.332;9.404;2023-04-03T00:23:07;92937.03;;;4.79;74.44
65376;BME280;51976;47.332;9.404;2023-04-03T00:25:33;92944.53;;;4.99;74.30
65376;BME280;51976;47.332;9.404;2023-04-03T00:27:59;92953.78;;;4.91;74.75
65376;BME280;51976;47.332;9.404;2023-04-03T00:30:24;92952.78;;;5.14;74.25
65376;BME280;51976;47.332;9.404;2023-04-03T00:32:51;92922.59;;;4.58;75.08
65376;BME280;51976;47.332;9.404;2023-04-03T00:35:17;92955.50;;;4.64;75.32
65376;BME280;51976;47.332;9.404;2023-04-03T00:37:43;92963.00;;;4.67;75.50
65376;BME280;51976;47.332;9.404;2023-04-03T00:40:10;92950.22;;;4.69;75.52
65376;BME280;51976;47.332;9.404;2023-04-03T00:42:37;92945.22;;;4.39;75.50
65376;BME280;51976;47.332;9.404;2023-04-03T00:45:28;92948.16;;;4.54;75.56
65376;BME280;51976;47.332;9.404;2023-04-03T00:47:55;92946.66;;;4.80;74.54
65376;BME280;51976;47.332;9.404;2023-04-03T00:50:21;92944.72;;;4.75;75.35
65376;BME280;51976;47.332;9.404;2023-04-03T00:52:47;92953.03;;;4.12;77.24
65376;BME280;51976;47.332;9.404;2023-04-03T00:55:14;92953.09;;;4.00;78.18
65376;BME280;51976;47.332;9.404;2023-04-03T00:57:40;92958.44;;;4.17;76.71
65376;BME280;51976;47.332;9.404;2023-04-03T01:00:10;92950.34;;;4.12;76.76
65376;BME280;51976;47.332;9.404;2023-04-03T01:02:37;92949.63;;;4.00;76.87
65376;BME280;51976;47.332;9.404;2023-04-03T01:05:04;92944.97;;;4.24;76.25
65376;BME280;51976;47.332;9.404;2023-04-03T01:07:30;92944.97;;;3.79;77.56
65376;BME280;51976;47.332;9.404;2023-04-03T01:09:59;92930.97;;;3.71;77.47
65376;BME280;51976;47.332;9.404;2023-04-03T01:12:31;92955.63;;;3.79;77.71
65376;BME280;51976;47.332;9.404;2023-04-03T01:15:00;92942.06;;;3.52;77.23
65376;BME280;51976;47.332;9.404;2023-04-03T01:17:43;92965.75;;;3.65;76.50
65376;BME280;51976;47.332;9.404;2023-04-03T01:20:43;92944.97;;;3.50;77.03
65376;BME280;51976;47.332;9.404;2023-04-03T01:23:25;92966.75;;;3.47;77.94
65376;BME280;51976;47.332;9.404;2023-04-03T01:25:54;92968.50;;;3.42;77.73
65376;BME280;51976;47.332;9.404;2023-04-03T01:28:26;92971.44;;;3.17;78.18
65376;BME280;51976;47.332;9.404;2023-04-03T01:31:06;92958.50;;;2.97;78.62
65376;BME280;51976;47.332;9.404;2023-04-03T01:33:36;92978.69;;;3.45;77.25
65376;BME280;51976;47.332;9.404;2023-04-03T01:36:02;92956.50;;;3.16;76.88
65376;BME280;51976;47.332;9.404;2023-04-03T01:38:28;92975.84;;;3.23;77.00
65376;BME280;51976;47.332;9.404;2023-04-03T01:40:53;92950.94;;;3.05;76.62
65376;BME280;51976;47.332;9.404;2023-04-03T01:43:19;92972.94;;;3.24;76.49
65376;BME280;51976;47.332;9.404;2023-04-03T01:45:44;92983.59;;;3.13;76.24
65376;BME280;51976;47.332;9.404;2023-04-03T01:48:12;92985.34;;;3.07;76.90
65376;BME280;51976;47.332;9.404;2023-04-03T01:50:37;92981.16;;;3.11;76.69
65376;BME280;51976;47.332;9.404;2023-04-03T01:53:02;92985.09;;;3.20;76.47
65376;BME280;51976;47.332;9.404;2023-04-03T01:55:28;92975.03;;;3.11;76.48
65376;BME280;51976;47.332;9.404;2023-04-03T01:57:53;92985.78;;;3.16;76.60
65376;BME280;51976;47.332;9.404;2023-04-03T02:00:19;92979.28;;;3.35;75.94
65376;BME280;51976;47.332;9.404;2023-04-03T02:02:44;92986.25;;;3.13;74.88
65376;BME280;51976;47.332;9.404;2023-04-03T02:05:10;92986.16;;;3.19;75.18
65376;BME280;51976;47.332;9.404;2023-04-03T02:07:35;92989.03;;;3.18;74.77
65376;BME280;51976;47.332;9.404;2023-04-03T02:10:01;92984.41;;;3.13;75.36
65376;BME280;51976;47.332;9.404;2023-04-03T02:12:26;92988.59;;;2.86;75.66
65376;BME280;51976;47.332;9.404;2023-04-03T02:14:51;92973.88;;;2.36;76.53
65376;BME280;51976;47.332;9.404;2023-04-03T02:17:17;92965.97;;;2.18;77.57
65376;BME280;51976;47.332;9.404;2023-04-03T02:19:42;92987.56;;;2.22;77.13
65376;BME280;51976;47.332;9.404;2023-04-03T02:22:08;92998.72;;;2.30;77.04
65376;BME280;51976;47.332;9.404;2023-04-03T02:24:33;93002.22;;;2.01;77.24
65376;BME280;51976;47.332;9.404;2023-04-03T02:26:59;93006.34;;;1.97;77.71
65376;BME280;51976;47.332;9.404;2023-04-03T02:29:25;93009.19;;;2.14;77.22
65376;BME280;51976;47.332;9.404;2023-04-03T02:31:50;93004.09;;;2.12;76.72
65376;BME280;51976;47.332;9.404;2023-04-03T02:34:16;92996.66;;;2.02;77.02
65376;BME280;51976;47.332;9.404;2023-04-03T02:36:41;92999.56;;;2.01;76.65
65376;BME280;51976;47.332;9.404;2023-04-03T02:39:06;92999.53;;;1.89;76.87
65376;BME280;51976;47.332;9.404;2023-04-03T02:41:32;93007.16;;;1.97;77.15
65376;BME280;51976;47.332;9.404;2023-04-03T02:44:04;93012.66;;;2.14;76.53
65376;BME280;51976;47.332;9.404;2023-04-03T02:46:31;93002.84;;;2.26;75.25
65376;BME280;51976;47.332;9.404;2023-04-03T02:48:56;93008.16;;;2.15;75.40
65376;BME280;51976;47.332;9.404;2023-04-03T02:51:21;93014.19;;;1.92;75.43
65376;BME280;51976;47.332;9.404;2023-04-03T02:53:48;93009.69;;;1.92;75.02
65376;BME280;51976;47.332;9.404;2023-04-03T02:56:14;93004.84;;;1.89;74.69
65376;BME280;51976;47.332;9.404;2023-04-03T02:58:40;93010.31;;;1.76;75.34
65376;BME280;51976;47.332;9.404;2023-04-03T03:01:06;92981.50;;;1.61;75.24
65376;BME280;51976;47.332;9.404;2023-04-03T03:03:31;93017.66;;;1.62;74.94
65376;BME280;51976;47.332;9.404;2023-04-03T03:06:04;93014.38;;;1.79;74.29
65376;BME280;51976;47.332;9.404;2023-04-03T03:08:30;93007.34;;;1.54;73.91
65376;BME280;51976;47.332;9.404;2023-04-03T03:10:55;93019.59;;;1.55;74.48
65376;BME280;51976;47.332;9.404;2023-04-03T03:13:21;93012.91;;;1.64;74.04
65376;BME280;51976;47.332;9.404;2023-04-03T03:15:46;92988.81;;;1.48;75.33
65376;BME280;51976;47.332;9.404;2023-04-03T03:18:11;93022.25;;;1.55;75.14
65376;BME280;51976;47.332;9.404;2023-04-03T03:20:37;93013.16;;;1.45;74.69
65376;BME280;51976;47.332;9.404;2023-04-03T03:23:02;93030.84;;;1.69;73.97
65376;BME280;51976;47.332;9.404;2023-04-03T03:25:27;93030.22;;;1.55;74.66
65376;BME280;51976;47.332;9.404;2023-04-03T03:27:53;93018.22;;;1.64;74.57
65376;BME280;51976;47.332;9.404;2023-04-03T03:30:18;93025.63;;;1.92;73.95
65376;BME280;51976;47.332;9.404;2023-04-03T03:32:44;93023.31;;;2.14;73.51
65376;BME280;51976;47.332;9.404;2023-04-03T03:35:09;92996.28;;;2.29;72.27
65376;BME280;51976;47.332;9.404;2023-04-03T03:37:34;92992.22;;;1.85;71.58
65376;BME280;51976;47.332;9.404;2023-04-03T03:40:00;93021.69;;;1.83;71.97
65376;BME280;51976;47.332;9.404;2023-04-03T03:42:25;92987.97;;;1.65;72.60
65376;BME280;51976;47.332;9.404;2023-04-03T03:44:51;93026.34;;;1.88;72.59
65376;BME280;51976;47.332;9.404;2023-04-03T03:47:16;93017.94;;;1.73;72.82
65376;BME280;51976;47.332;9.404;2023-04-03T03:49:42;93005.72;;;1.53;72.35
65376;BME280;51976;47.332;9.404;2023-04-03T03:52:07;93010.31;;;1.76;72.13
65376;BME280;51976;47.332;9.404;2023-04-03T03:54:36;93028.19;;;1.87;71.95
65376;BME280;51976;47.332;9.404;2023-04-03T03:57:02;93020.44;;;1.67;71.53
65376;BME280;51976;47.332;9.404;2023-04-03T03:59:27;93030.84;;;1.87;71.64
65376;BME280;51976;47.332;9.404;2023-04-03T04:01:53;93019.06;;;1.95;70.47
65376;BME280;51976;47.332;9.404;2023-04-03T04:04:18;93024.66;;;2.05;70.06
65376;BME280;51976;47.332;9.404;2023-04-03T04:06:43;93024.56;;;2.12;70.12
65376;BME280;51976;47.332;9.404;2023-04-03T04:09:09;93022.81;;;2.06;70.22
65376;BME280;51976;47.332;9.404;2023-04-03T04:11:35;93034.25;;;1.76;71.10
65376;BME280;51976;47.332;9.404;2023-04-03T04:14:00;92998.34;;;1.37;71.70
65376;BME280;51976;47.332;9.404;2023-04-03T04:16:25;93010.84;;;1.37;72.02
65376;BME280;51976;47.332;9.404;2023-04-03T04:18:51;93019.88;;;1.47;71.86
65376;BME280;51976;47.332;9.404;2023-04-03T04:21:16;93020.53;;;1.61;71.54
65376;BME280;51976;47.332;9.404;2023-04-03T04:23:41;92994.66;;;1.56;70.72
65376;BME280;51976;47.332;9.404;2023-04-03T04:26:07;93005.72;;;1.53;70.75
65376;BME280;51976;47.332;9.404;2023-04-03T04:28:32;93014.47;;;1.72;70.74
65376;BME280;51976;47.332;9.404;2023-04-03T04:30:57;93019.91;;;1.77;70.40
65376;BME280;51976;47.332;9.404;2023-04-03T04:33:23;93018.53;;;1.38;71.27
65376;BME280;51976;47.332;9.404;2023-04-03T04:35:48;93015.97;;;1.50;71.45
65376;BME280;51976;47.332;9.404;2023-04-03T04:38:14;92998.06;;;1.27;71.62
65376;BME280;51976;47.332;9.404;2023-04-03T04:40:39;93022.84;;;1.21;72.95
65376;BME280;51976;47.332;9.404;2023-04-03T04:43:05;93012.34;;;1.44;72.88
65376;BME280;51976;47.332;9.404;2023-04-03T04:45:31;93024.34;;;1.65;72.37
65376;BME280;51976;47.332;9.404;2023-04-03T04:47:56;93021.06;;;1.51;72.15
65376;BME280;51976;47.332;9.404;2023-04-03T04:50:22;93018.09;;;1.41;72.72
65376;BME280;51976;47.332;9.404;2023-04-03T04:52:47;93029.78;;;1.22;72.50
65376;BME280;51976;47.332;9.404;2023-04-03T04:55:13;93014.28;;;1.19;72.83
65376;BME280;51976;47.332;9.404;2023-04-03T04:57:38;93008.91;;;1.25;72.19
65376;BME280;51976;47.332;9.404;2023-04-03T05:00:04;93007.81;;;1.33;71.26
65376;BME280;51976;47.332;9.404;2023-04-03T05:02:30;93005.56;;;0.93;71.07
65376;BME280;51976;47.332;9.404;2023-04-03T05:04:56;93025.59;;;0.89;72.04
65376;BME280;51976;47.332;9.404;2023-04-03T05:07:21;93024.19;;;0.87;72.05
65376;BME280;51976;47.332;9.404;2023-04-03T05:09:47;93026.97;;;0.98;71.73
65376;BME280;51976;47.332;9.404;2023-04-03T05:12:12;92989.03;;;0.73;71.21
65376;BME280;51976;47.332;9.404;2023-04-03T05:14:38;93024.72;;;0.77;71.46
65376;BME280;51976;47.332;9.404;2023-04-03T05:17:03;93022.88;;;0.78;70.75
65376;BME280;51976;47.332;9.404;2023-04-03T05:19:28;93025.59;;;0.89;70.91
65376;BME280;51976;47.332;9.404;2023-04-03T05:21:54;93019.00;;;0.98;70.75
65376;BME280;51976;47.332;9.404;2023-04-03T05:24:20;93032.13;;;0.68;71.13
65376;BME280;51976;47.332;9.404;2023-04-03T05:26:45;93033.75;;;0.70;71.33
65376;BME280;51976;47.332;9.404;2023-04-03T05:29:11;93025.16;;;0.49;71.58
65376;BME280;51976;47.332;9.404;2023-04-03T05:31:36;93029.97;;;0.59;71.54
65376;BME280;51976;47.332;9.404;2023-04-03T05:34:02;93033.00;;;0.62;71.75
65376;BME280;51976;47.332;9.404;2023-04-03T05:36:27;93046.72;;;1.02;70.88
65376;BME280;51976;47.332;9.404;2023-04-03T05:38:53;93032.47;;;0.79;70.49
65376;BME280;51976;47.332;9.404;2023-04-03T05:41:19;93050.47;;;0.95;70.77
65376;BME280;51976;47.332;9.404;2023-04-03T05:43:46;93051.97;;;1.09;70.28
65376;BME280;51976;47.332;9.404;2023-04-03T05:46:12;93043.75;;;1.11;70.00
65376;BME280;51976;47.332;9.404;2023-04-03T05:48:38;93056.69;;;1.07;70.64
65376;BME280;51976;47.332;9.404;2023-04-03T05:51:04;93057.56;;;1.19;70.78
65376;BME280;51976;47.332;9.404;2023-04-03T05:53:31;93035.78;;;0.92;71.24
65376;BME280;51976;47.332;9.404;2023-04-03T05:55:58;93059.47;;;0.94;72.12
65376;BME280;51976;47.332;9.404;2023-04-03T05:58:23;93058.53;;;1.25;71.46
65376;BME280;51976;47.332;9.404;2023-04-03T06:00:49;93044.88;;;1.03;71.93
65376;BME280;51976;47.332;9.404;2023-04-03T06:03:14;93061.28;;;0.75;72.74
65376;BME280;51976;47.332;9.404;2023-04-03T06:05:40;93069.22;;;0.75;72.71
65376;BME280;51976;47.332;9.404;2023-04-03T06:08:06;93063.06;;;0.81;72.56
65376;BME280;51976;47.332;9.404;2023-04-03T06:10:32;93061.16;;;0.63;73.02
65376;BME280;51976;47.332;9.404;2023-04-03T06:12:57;93062.13;;;0.69;73.51
65376;BME280;51976;47.332;9.404;2023-04-03T06:15:23;93051.19;;;0.59;73.32
65376;BME280;51976;47.332;9.404;2023-04-03T06:17:48;93063.28;;;0.80;73.65
65376;BME280;51976;47.332;9.404;2023-04-03T06:20:14;93068.41;;;0.50;74.02
65376;BME280;51976;47.332;9.404;2023-04-03T06:22:40;93064.66;;;0.82;73.35
65376;BME280;51976;47.332;9.404;2023-04-03T06:25:07;93066.34;;;1.01;73.43
65376;BME280;51976;47.332;9.404;2023-04-03T06:27:34;93060.50;;;1.11;73.02
65376;BME280;51976;47.332;9.404;2023-04-03T06:29:59;93057.50;;;1.08;73.87
65376;BME280;51976;47.332;9.404;2023-04-03T06:32:25;93023.81;;;0.40;74.43
65376;BME280;51976;47.332;9.404;2023-04-03T06:34:50;93055.19;;;0.68;74.64
65376;BME280;51976;47.332;9.404;2023-04-03T06:37:21;93063.53;;;0.96;74.28
65376;BME280;51976;47.332;9.404;2023-04-03T06:39:47;93065.41;;;0.89;74.15
65376;BME280;51976;47.332;9.404;2023-04-03T06:42:13;93066.94;;;1.04;74.24
65376;BME280;51976;47.332;9.404;2023-04-03T06:44:38;93065.38;;;0.96;74.36
65376;BME280;51976;47.332;9.404;2023-04-03T06:47:04;93059.84;;;0.97;74.97
65376;BME280;51976;47.332;9.404;2023-04-03T06:49:32;93046.41;;;0.92;74.79
65376;BME280;51976;47.332;9.404;2023-04-03T06:51:58;93062.81;;;1.08;74.39
65376;BME280;51976;47.332;9.404;2023-04-03T06:54:23;93044.59;;;1.11;74.17
65376;BME280;51976;47.332;9.404;2023-04-03T06:56:49;93069.31;;;1.48;73.74
65376;BME280;51976;47.332;9.404;2023-04-03T06:59:15;93059.00;;;1.58;72.96
65376;BME280;51976;47.332;9.404;2023-04-03T07:01:41;93065.03;;;1.65;72.43
65376;BME280;51976;47.332;9.404;2023-04-03T07:04:07;93064.31;;;1.58;72.69
65376;BME280;51976;47.332;9.404;2023-04-03T07:06:33;93067.78;;;1.59;72.94
65376;BME280;51976;47.332;9.404;2023-04-03T07:08:59;93049.47;;;1.51;73.07
65376;BME280;51976;47.332;9.404;2023-04-03T07:11:25;93068.16;;;1.62;72.10
65376;BME280;51976;47.332;9.404;2023-04-03T07:13:51;93075.72;;;1.77;71.74
65376;BME280;51976;47.332;9.404;2023-04-03T07:16:18;93079.78;;;1.80;71.47
65376;BME280;51976;47.332;9.404;2023-04-03T07:18:43;93075.97;;;1.57;72.01
65376;BME280;51976;47.332;9.404;2023-04-03T07:21:09;93080.47;;;1.57;71.73
65376;BME280;51976;47.332;9.404;2023-04-03T07:23:34;93050.56;;;1.43;71.82
65376;BME280;51976;47.332;9.404;2023-04-03T07:26:00;93081.50;;;1.74;71.92
65376;BME280;51976;47.332;9.404;2023-04-03T07:28:26;93084.31;;;1.61;71.64
65376;BME280;51976;47.332;9.404;2023-04-03T07:30:58;93060.22;;;1.38;71.69
65376;BME280;51976;47.332;9.404;2023-04-03T07:33:25;93080.66;;;1.37;72.76
65376;BME280;51976;47.332;9.404;2023-04-03T07:35:50;93073.88;;;1.41;72.38
65376;BME280;51976;47.332;9.404;2023-04-03T07:38:16;93076.84;;;1.51;71.84
65376;BME280;51976;47.332;9.404;2023-04-03T07:40:46;93089.59;;;1.24;73.29
65376;BME280;51976;47.332;9.404;2023-04-03T07:43:11;93086.94;;;1.43;72.82
65376;BME280;51976;47.332;9.404;2023-04-03T07:45:37;93085.03;;;1.50;72.48
65376;BME280;51976;47.332;9.404;2023-04-03T07:48:02;93090.41;;;1.43;73.27
65376;BME280;51976;47.332;9.404;2023-04-03T07:50:28;93062.59;;;1.46;73.03
65376;BME280;51976;47.332;9.404;2023-04-03T07:52:55;93081.22;;;1.64;72.31
65376;BME280;51976;47.332;9.404;2023-04-03T07:55:22;93081.28;;;1.76;71.54
65376;BME280;51976;47.332;9.404;2023-04-03T07:57:48;93065.13;;;1.59;71.58
65376;BME280;51976;47.332;9.404;2023-04-03T08:00:14;93082.53;;;1.73;72.07
65376;BME280;51976;47.332;9.404;2023-04-03T08:02:40;93086.00;;;1.74;71.59
65376;BME280;51976;47.332;9.404;2023-04-03T08:05:05;93091.25;;;1.80;71.81
65376;BME280;51976;47.332;9.404;2023-04-03T08:07:31;93088.13;;;1.83;71.56
65376;BME280;51976;47.332;9.404;2023-04-03T08:09:56;93092.34;;;1.54;71.84
65376;BME280;51976;47.332;9.404;2023-04-03T08:12:22;93090.22;;;1.63;71.69
65376;BME280;51976;47.332;9.404;2023-04-03T08:14:47;93091.59;;;1.47;71.97
65376;BME280;51976;47.332;9.404;2023-04-03T08:17:13;93069.91;;;1.50;71.29
65376;BME280;51976;47.332;9.404;2023-04-03T08:19:39;93082.31;;;1.56;72.59
65376;BME280;51976;47.332;9.404;2023-04-03T08:22:05;93093.81;;;1.68;72.17
65376;BME280;51976;47.332;9.404;2023-04-03T08:24:32;93084.66;;;1.64;72.16
65376;BME280;51976;47.332;9.404;2023-04-03T08:26:57;93088.50;;;1.32;72.84
65376;BME280;51976;47.332;9.404;2023-04-03T08:29:23;93083.09;;;1.39;72.28
65376;BME280;51976;47.332;9.404;2023-04-03T08:31:50;93090.28;;;1.56;72.01
65376;BME280;51976;47.332;9.404;2023-04-03T08:34:16;93084.97;;;1.75;70.90
65376;BME280;51976;47.332;9.404;2023-04-03T08:36:42;93070.63;;;1.39;71.48
65376;BME280;51976;47.332;9.404;2023-04-03T08:39:08;93097.50;;;1.67;71.53
65376;BME280;51976;47.332;9.404;2023-04-03T08:41:37;93095.88;;;1.66;71.02
65376;BME280;51976;47.332;9.404;2023-04-03T08:47:25;93094.84;;;1.86;70.40
65376;BME280;51976;47.332;9.404;2023-04-03T08:49:58;93098.81;;;1.95;70.15
65376;BME280;51976;47.332;9.404;2023-04-03T08:52:34;93078.63;;;1.76;69.88
65376;BME280;51976;47.332;9.404;2023-04-03T08:55:04;93105.13;;;1.64;69.86
65376;BME280;51976;47.332;9.404;2023-04-03T08:57:33;93089.16;;;1.82;69.51
65376;BME280;51976;47.332;9.404;2023-04-03T09:00:07;93091.44;;;1.97;70.29
65376;BME280;51976;47.332;9.404;2023-04-03T09:02:46;93073.00;;;1.65;69.57
65376;BME280;51976;47.332;9.404;2023-04-03T09:05:16;93114.63;;;1.72;69.80
65376;BME280;51976;47.332;9.404;2023-04-03T09:07:45;93098.84;;;1.58;70.18
65376;BME280;51976;47.332;9.404;2023-04-03T09:10:14;93110.06;;;1.79;70.62
65376;BME280;51976;47.332;9.404;2023-04-03T09:12:47;93074.41;;;1.50;70.91
65376;BME280;51976;47.332;9.404;2023-04-03T09:15:19;93106.81;;;1.77;70.94
65376;BME280;51976;47.332;9.404;2023-04-03T09:18:09;93114.47;;;1.66;72.38
65376;BME280;51976;47.332;9.404;2023-04-03T09:23:48;93106.22;;;1.56;71.70
65376;BME280;51976;47.332;9.404;2023-04-03T09:26:31;93116.69;;;1.51;72.05
65376;BME280;51976;47.332;9.404;2023-04-03T09:29:04;93116.28;;;1.54;72.70
65376;BME280;51976;47.332;9.404;2023-04-03T09:31:37;93114.34;;;1.80;71.67
65376;BME280;51976;47.332;9.404;2023-04-03T09:34:08;93086.75;;;1.62;71.30
65376;BME280;51976;47.332;9.404;2023-04-03T09:36:47;93113.72;;;2.14;70.80
65376;BME280;51976;47.332;9.404;2023-04-03T09:39:18;93095.72;;;2.28;70.03
65376;BME280;51976;47.332;9.404;2023-04-03T09:42:05;93109.13;;;1.91;71.22
65376;BME280;51976;47.332;9.404;2023-04-03T09:44:38;93116.50;;;1.89;71.86
65376;BME280;51976;47.332;9.404;2023-04-03T09:47:25;93101.22;;;1.85;71.84
65376;BME280;51976;47.332;9.404;2023-04-03T09:49:51;93115.72;;;2.19;71.54
65376;BME280;51976;47.332;9.404;2023-04-03T09:52:34;93117.66;;;2.42;71.04
65376;BME280;51976;47.332;9.404;2023-04-03T09:55:15;93099.09;;;2.05;71.11
65376;BME280;51976;47.332;9.404;2023-04-03T09:57:41;93122.25;;;2.34;70.60
65376;BME280;51976;47.332;9.404;2023-04-03T10:00:26;93122.84;;;2.36;70.65
65376;BME280;51976;47.332;9.404;2023-04-03T10:02:57;93119.59;;;2.34;70.65
65376;BME280;51976;47.332;9.404;2023-04-03T10:05:30;93109.03;;;2.58;70.47
65376;BME280;51976;47.332;9.404;2023-04-03T10:08:20;93070.81;;;2.41;69.63
65376;BME280;51976;47.332;9.404;2023-04-03T10:10:47;93112.53;;;2.70;69.34
65376;BME280;51976;47.332;9.404;2023-04-03T10:13:16;93106.88;;;2.78;69.14
65376;BME280;51976;47.332;9.404;2023-04-03T10:15:50;93110.34;;;2.67;70.60
65376;BME280;51976;47.332;9.404;2023-04-03T10:18:42;93113.69;;;2.74;70.26
65376;BME280;51976;47.332;9.404;2023-04-03T10:21:17;93119.91;;;2.56;70.37
65376;BME280;51976;47.332;9.404;2023-04-03T10:24:02;93111.91;;;2.56;71.20
65376;BME280;51976;47.332;9.404;2023-04-03T10:26:55;93113.38;;;2.41;71.31
65376;BME280;51976;47.332;9.404;2023-04-03T10:29:34;93093.28;;;2.45;71.71
65376;BME280;51976;47.332;9.404;2023-04-03T10:32:25;93103.69;;;2.58;71.81
65376;BME280;51976;47.332;9.404;2023-04-03T10:35:11;93093.69;;;2.83;70.90
65376;BME280;51976;47.332;9.404;2023-04-03T10:37:54;93104.69;;;2.87;71.30
65376;BME280;51976;47.332;9.404;2023-04-03T10:40:34;93094.09;;;2.57;71.99
65376;BME280;51976;47.332;9.404;2023-04-03T10:43:20;93105.59;;;2.81;72.27
65376;BME280;51976;47.332;9.404;2023-04-03T10:46:02;93101.69;;;2.83;71.71
65376;BME280;51976;47.332;9.404;2023-04-03T10:48:47;93095.72;;;2.58;73.06
65376;BME280;51976;47.332;9.404;2023-04-03T10:51:31;93081.41;;;2.82;72.52
65376;BME280;51976;47.332;9.404;2023-04-03T10:54:13;93094.59;;;2.77;71.96
65376;BME280;51976;47.332;9.404;2023-04-03T10:56:48;93094.59;;;2.65;72.58
65376;BME280;51976;47.332;9.404;2023-04-03T10:59:32;93094.00;;;2.75;72.20
65376;BME280;51976;47.332;9.404;2023-04-03T11:02:01;93089.06;;;2.90;71.34
65376;BME280;51976;47.332;9.404;2023-04-03T11:04:33;93088.75;;;2.98;70.35
65376;BME280;51976;47.332;9.404;2023-04-03T11:07:09;93087.94;;;2.98;69.94
65376;BME280;51976;47.332;9.404;2023-04-03T11:09:40;93074.72;;;2.91;70.14
65376;BME280;51976;47.332;9.404;2023-04-03T11:12:28;93084.66;;;2.84;70.42
65376;BME280;51976;47.332;9.404;2023-04-03T11:14:56;93079.66;;;2.76;70.76
65376;BME280;51976;47.332;9.404;2023-04-03T11:17:35;92971.94;;;1.72;71.11
65376;BME280;51976;47.332;9.404;2023-04-03T11:20:14;93055.91;;;2.51;71.59
65376;BME280;51976;47.332;9.404;2023-04-03T11:22:45;93081.53;;;2.87;71.13
65376;BME280;51976;47.332;9.404;2023-04-03T11:25:19;93060.13;;;2.70;70.06
65376;BME280;51976;47.332;9.404;2023-04-03T11:27:56;93067.09;;;2.42;71.68
65376;BME280;51976;47.332;9.404;2023-04-03T11:30:30;93062.19;;;2.68;71.87
65376;BME280;51976;47.332;9.404;2023-04-03T11:33:29;93072.28;;;3.01;71.09
65376;BME280;51976;47.332;9.404;2023-04-03T11:36:01;93062.22;;;3.03;70.85
65376;BME280;51976;47.332;9.404;2023-04-03T11:38:33;93054.81;;;2.94;70.03
65376;BME280;51976;47.332;9.404;2023-04-03T11:41:03;93079.56;;;2.71;69.85
65376;BME280;51976;47.332;9.404;2023-04-03T11:43:31;93082.38;;;2.99;69.83
65376;BME280;51976;47.332;9.404;2023-04-03T11:46:04;93049.72;;;2.92;69.05
65376;BME280;51976;47.332;9.404;2023-04-03T11:48:48;93074.50;;;3.04;69.73
65376;BME280;51976;47.332;9.404;2023-04-03T11:51:39;93075.53;;;3.03;69.99
65376;BME280;51976;47.332;9.404;2023-04-03T11:54:36;93069.28;;;3.10;69.68
65376;BME280;51976;47.332;9.404;2023-04-03T11:57:22;93068.38;;;3.16;69.68
65376;BME280;51976;47.332;9.404;2023-04-03T11:59:48;93070.56;;;3.19;69.07
65376;BME280;51976;47.332;9.404;2023-04-03T12:02:35;93072.19;;;3.20;68.92
65376;BME280;51976;47.332;9.404;2023-04-03T12:05:24;93066.63;;;3.21;68.10
65376;BME280;51976;47.332;9.404;2023-04-03T12:09:19;93060.50;;;3.21;68.20
65376;BME280;51976;47.332;9.404;2023-04-03T12:11:26;93068.25;;;3.11;69.11
65376;BME280;51976;47.332;9.404;2023-04-03T12:14:05;93060.25;;;3.11;68.69
65376;BME280;51976;47.332;9.404;2023-04-03T12:16:46;93055.19;;;3.21;68.25
65376;BME280;51976;47.332;9.404;2023-04-03T12:19:36;93053.28;;;3.33;68.06
65376;BME280;51976;47.332;9.404;2023-04-03T12:22:07;93053.56;;;3.20;68.17
65376;BME280;51976;47.332;9.404;2023-04-03T12:24:37;93040.00;;;3.21;68.31
65376;BME280;51976;47.332;9.404;2023-04-03T12:27:30;93044.06;;;3.24;67.96
65376;BME280;51976;47.332;9.404;2023-04-03T12:30:05;93048.56;;;3.47;68.13
65376;BME280;51976;47.332;9.404;2023-04-03T12:32:56;93042.78;;;3.15;69.12
65376;BME280;51976;47.332;9.404;2023-04-03T12:35:36;93025.63;;;3.11;69.68
65376;BME280;51976;47.332;9.404;2023-04-03T12:38:25;93041.84;;;3.21;69.95
65376;BME280;51976;47.332;9.404;2023-04-03T12:41:18;93044.88;;;3.24;70.11
65376;BME280;51976;47.332;9.404;2023-04-03T12:46:43;93039.75;;;3.34;69.10
65376;BME280;51976;47.332;9.404;2023-04-03T12:49:33;93031.94;;;3.68;68.35
65376;BME280;51976;47.332;9.404;2023-04-03T12:51:58;93029.38;;;3.73;68.55
65376;BME280;51976;47.332;9.404;2023-04-03T12:54:34;92987.25;;;3.47;68.89
65376;BME280;51976;47.332;9.404;2023-04-03T12:57:18;93030.81;;;3.52;68.88
65376;BME280;51976;47.332;9.404;2023-04-03T12:59:44;93032.41;;;3.65;68.89
65376;BME280;51976;47.332;9.404;2023-04-03T13:02:22;93026.59;;;3.80;68.04
65376;BME280;51976;47.332;9.404;2023-04-03T13:04:49;93030.72;;;3.87;67.90
65376;BME280;51976;47.332;9.404;2023-04-03T13:07:24;93021.25;;;3.80;68.37
65376;BME280;51976;47.332;9.404;2023-04-03T13:09:57;93033.59;;;3.97;67.73
65376;BME280;51976;47.332;9.404;2023-04-03T13:12:22;93030.59;;;3.94;67.00
65376;BME280;51976;47.332;9.404;2023-04-03T13:14:53;93031.03;;;4.02;66.22
65376;BME280;51976;47.332;9.404;2023-04-03T13:17:19;92996.09;;;3.76;66.14
65376;BME280;51976;47.332;9.404;2023-04-03T13:19:45;93017.38;;;4.16;66.25
65376;BME280;51976;47.332;9.404;2023-04-03T13:22:34;93020.69;;;4.06;66.17
65376;BME280;51976;47.332;9.404;2023-04-03T13:25:06;93010.91;;;4.12;66.62
65376;BME280;51976;47.332;9.404;2023-04-03T13:27:33;92995.41;;;4.08;65.90
65376;BME280;51976;47.332;9.404;2023-04-03T13:30:01;93002.03;;;4.06;65.10
65376;BME280;51976;47.332;9.404;2023-04-03T13:32:28;93006.56;;;3.94;64.00
65376;BME280;51976;47.332;9.404;2023-04-03T13:34:54;93010.13;;;3.71;64.87